sensor_id;sensor_type;location;lat;lon;timestamp;temperature;humidity
48998;DHT22;34807;51.456;7.244;2023-05-10T00:02:22;15.40;97.60
48998;DHT22;34807;51.456;7.244;2023-05-10T00:04:48;15.30;97.50
48998;DHT22;34807;51.456;7.244;2023-05-10T00:07:13;15.30;97.80
48998;DHT22;34807;51.456;7.244;2023-05-10T00:09:39;15.30;97.60
48998;DHT22;34807;51.456;7.244;2023-05-10T00:12:05;15.30;97.60
48998;DHT22;34807;51.456;7.244;2023-05-10T00:14:30;15.30;97.50
48998;DHT22;34807;51.456;7.244;2023-05-10T00:16:56;15.30;97.60
48998;DHT22;34807;51.456;7.244;2023-05-10T00:19:22;15.30;97.70
48998;DHT22;34807;51.456;7.244;2023-05-10T00:21:47;15.20;97.80
48998;DHT22;34807;51.456;7.244;2023-05-10T00:24:13;15.20;97.60
48998;DHT22;34807;51.456;7.244;2023-05-10T00:26:38;15.20;97.70
48998;DHT22;34807;51.456;7.244;2023-05-10T00:29:04;15.20;97.70
48998;DHT22;34807;51.456;7.244;2023-05-10T00:31:29;15.20;97.70
48998;DHT22;34807;51.456;7.244;2023-05-10T00:33:55;15.20;97.60
48998;DHT22;34807;51.456;7.244;2023-05-10T00:36:20;15.20;97.70
48998;DHT22;34807;51.456;7.244;2023-05-10T00:38:46;15.20;97.70
48998;DHT22;34807;51.456;7.244;2023-05-10T00:41:11;15.20;97.70
48998;DHT22;34807;51.456;7.244;2023-05-10T00:43:37;15.10;97.80
48998;DHT22;34807;51.456;7.244;2023-05-10T00:46:03;15.10;97.90
48998;DHT22;34807;51.456;7.244;2023-05-10T00:48:28;15.10;97.70
48998;DHT22;34807;51.456;7.244;2023-05-10T00:50:54;15.10;97.60
48998;DHT22;34807;51.456;7.244;2023-05-10T00:53:21;15.10;97.60
48998;DHT22;34807;51.456;7.244;2023-05-10T00:55:46;15.10;97.60
48998;DHT22;34807;51.456;7.244;2023-05-10T00:58:12;15.10;97.80
48998;DHT22;34807;51.456;7.244;2023-05-10T01:00:38;15.10;97.80
48998;DHT22;34807;51.456;7.244;2023-05-10T01:03:06;15.10;97.70
48998;DHT22;34807;51.456;7.244;2023-05-10T01:05:32;15.00;97.80
48998;DHT22;34807;51.456;7.244;2023-05-10T01:07:57;15.00;97.80
48998;DHT22;34807;51.456;7.244;2023-05-10T01:10:23;15.10;97.80
48998;DHT22;34807;51.456;7.244;2023-05-10T01:12:48;15.00;97.70
48998;DHT22;34807;51.456;7.244;2023-05-10T01:15:14;15.00;97.70
48998;DHT22;34807;51.456;7.244;2023-05-10T01:17:40;15.00;97.90
48998;DHT22;34807;51.456;7.244;2023-05-10T01:20:07;15.00;97.70
48998;DHT22;34807;51.456;7.244;2023-05-10T01:25:44;14.90;97.80
48998;DHT22;34807;51.456;7.244;2023-05-10T01:30:46;15.00;97.60
48998;DHT22;34807;51.456;7.244;2023-05-10T01:38:45;15.00;97.70
48998;DHT22;34807;51.456;7.244;2023-05-10T01:46:16;14.90;97.70
48998;DHT22;34807;51.456;7.244;2023-05-10T01:48:51;14.90;97.90
48998;DHT22;34807;51.456;7.244;2023-05-10T01:51:19;14.90;97.80
48998;DHT22;34807;51.456;7.244;2023-05-10T01:53:46;14.90;97.80
48998;DHT22;34807;51.456;7.244;2023-05-10T01:56:13;14.90;97.80
48998;DHT22;34807;51.456;7.244;2023-05-10T01:58:39;14.80;97.90
48998;DHT22;34807;51.456;7.244;2023-05-10T02:01:05;14.80;97.90
48998;DHT22;34807;51.456;7.244;2023-05-10T02:03:32;14.80;97.80
48998;DHT22;34807;51.456;7.244;2023-05-10T02:05:59;14.80;97.90
48998;DHT22;34807;51.456;7.244;2023-05-10T02:08:25;14.80;97.90
48998;DHT22;34807;51.456;7.244;2023-05-10T02:10:54;14.80;97.70
48998;DHT22;34807;51.456;7.244;2023-05-10T02:13:20;14.80;97.80
48998;DHT22;34807;51.456;7.244;2023-05-10T02:15:46;14.80;98.00
48998;DHT22;34807;51.456;7.244;2023-05-10T02:18:13;14.80;97.80
48998;DHT22;34807;51.456;7.244;2023-05-10T02:20:38;14.80;97.80
48998;DHT22;34807;51.456;7.244;2023-05-10T02:23:04;14.70;97.70
48998;DHT22;34807;51.456;7.244;2023-05-10T02:25:31;14.80;97.80
48998;DHT22;34807;51.456;7.244;2023-05-10T02:27:57;14.80;97.80
48998;DHT22;34807;51.456;7.244;2023-05-10T02:30:23;14.70;97.80
48998;DHT22;34807;51.456;7.244;2023-05-10T02:32:49;14.70;97.80
48998;DHT22;34807;51.456;7.244;2023-05-10T02:35:14;14.70;98.00
48998;DHT22;34807;51.456;7.244;2023-05-10T02:37:41;14.70;98.00
48998;DHT22;34807;51.456;7.244;2023-05-10T02:40:07;14.70;98.00
48998;DHT22;34807;51.456;7.244;2023-05-10T02:42:35;14.70;98.00
48998;DHT22;34807;51.456;7.244;2023-05-10T02:45:01;14.70;98.00
48998;DHT22;34807;51.456;7.244;2023-05-10T02:47:28;14.60;97.90
48998;DHT22;34807;51.456;7.244;2023-05-10T02:49:53;14.70;98.10
48998;DHT22;34807;51.456;7.244;2023-05-10T02:52:21;14.60;98.00
48998;DHT22;34807;51.456;7.244;2023-05-10T02:54:49;14.60;97.80
48998;DHT22;34807;51.456;7.244;2023-05-10T02:57:16;14.60;97.90
48998;DHT22;34807;51.456;7.244;2023-05-10T02:59:43;14.60;98.00
48998;DHT22;34807;51.456;7.244;2023-05-10T03:02:10;14.60;98.00
48998;DHT22;34807;51.456;7.244;2023-05-10T03:04:36;14.60;98.10
48998;DHT22;34807;51.456;7.244;2023-05-10T03:07:02;14.60;98.10
48998;DHT22;34807;51.456;7.244;2023-05-10T03:09:27;14.60;98.00
48998;DHT22;34807;51.456;7.244;2023-05-10T03:14:32;14.50;98.20
48998;DHT22;34807;51.456;7.244;2023-05-10T03:19:28;14.50;98.30
48998;DHT22;34807;51.456;7.244;2023-05-10T03:21:55;14.50;98.30
48998;DHT22;34807;51.456;7.244;2023-05-10T03:24:23;14.50;98.40
48998;DHT22;34807;51.456;7.244;2023-05-10T03:26:52;14.50;98.50
48998;DHT22;34807;51.456;7.244;2023-05-10T03:29:20;14.50;98.50
48998;DHT22;34807;51.456;7.244;2023-05-10T03:31:47;14.50;98.50
48998;DHT22;34807;51.456;7.244;2023-05-10T03:34:12;14.40;98.50
48998;DHT22;34807;51.456;7.244;2023-05-10T03:36:38;14.50;98.40
48998;DHT22;34807;51.456;7.244;2023-05-10T03:39:04;14.50;98.40
48998;DHT22;34807;51.456;7.244;2023-05-10T03:41:29;14.40;98.40
48998;DHT22;34807;51.456;7.244;2023-05-10T03:43:55;14.40;98.40
48998;DHT22;34807;51.456;7.244;2023-05-10T03:46:20;14.40;98.40
48998;DHT22;34807;51.456;7.244;2023-05-10T03:48:46;14.40;98.40
48998;DHT22;34807;51.456;7.244;2023-05-10T03:51:11;14.40;98.50
48998;DHT22;34807;51.456;7.244;2023-05-10T03:53:37;14.40;98.50
48998;DHT22;34807;51.456;7.244;2023-05-10T03:56:02;14.40;98.40
48998;DHT22;34807;51.456;7.244;2023-05-10T03:58:28;14.40;98.50
48998;DHT22;34807;51.456;7.244;2023-05-10T04:00:53;14.40;98.50
48998;DHT22;34807;51.456;7.244;2023-05-10T04:03:19;14.40;98.50
48998;DHT22;34807;51.456;7.244;2023-05-10T04:05:45;14.30;98.50
48998;DHT22;34807;51.456;7.244;2023-05-10T04:08:10;14.30;98.20
48998;DHT22;34807;51.456;7.244;2023-05-10T04:10:36;14.30;98.50
48998;DHT22;34807;51.456;7.244;2023-05-10T04:13:01;14.30;98.40
48998;DHT22;34807;51.456;7.244;2023-05-10T04:15:27;14.30;98.40
48998;DHT22;34807;51.456;7.244;2023-05-10T04:17:52;14.30;98.40
48998;DHT22;34807;51.456;7.244;2023-05-10T04:20:18;14.30;98.20
48998;DHT22;34807;51.456;7.244;2023-05-10T04:22:44;14.30;98.20
48998;DHT22;34807;51.456;7.244;2023-05-10T04:25:09;14.30;98.30
48998;DHT22;34807;51.456;7.244;2023-05-10T04:27:35;14.30;98.20
48998;DHT22;34807;51.456;7.244;2023-05-10T04:30:01;14.30;98.10
48998;DHT22;34807;51.456;7.244;2023-05-10T04:32:26;14.30;98.20
48998;DHT22;34807;51.456;7.244;2023-05-10T04:34:51;14.30;98.10
48998;DHT22;34807;51.456;7.244;2023-05-10T04:37:18;14.30;98.20
48998;DHT22;34807;51.456;7.244;2023-05-10T04:39:43;14.30;98.20
48998;DHT22;34807;51.456;7.244;2023-05-10T04:42:09;14.20;98.40
48998;DHT22;34807;51.456;7.244;2023-05-10T04:44:35;14.20;98.40
48998;DHT22;34807;51.456;7.244;2023-05-10T04:47:00;14.20;98.20
48998;DHT22;34807;51.456;7.244;2023-05-10T04:49:27;14.30;98.40
48998;DHT22;34807;51.456;7.244;2023-05-10T04:51:53;14.20;98.30
48998;DHT22;34807;51.456;7.244;2023-05-10T04:54:18;14.20;98.30
48998;DHT22;34807;51.456;7.244;2023-05-10T04:56:44;14.20;98.40
48998;DHT22;34807;51.456;7.244;2023-05-10T04:59:09;14.20;98.30
48998;DHT22;34807;51.456;7.244;2023-05-10T05:01:35;14.20;98.30
48998;DHT22;34807;51.456;7.244;2023-05-10T05:04:00;14.20;98.30
48998;DHT22;34807;51.456;7.244;2023-05-10T05:06:26;14.20;98.20
48998;DHT22;34807;51.456;7.244;2023-05-10T05:08:52;14.20;98.20
48998;DHT22;34807;51.456;7.244;2023-05-10T05:11:18;14.20;98.20
48998;DHT22;34807;51.456;7.244;2023-05-10T05:13:43;14.20;98.10
48998;DHT22;34807;51.456;7.244;2023-05-10T05:16:09;14.20;98.20
48998;DHT22;34807;51.456;7.244;2023-05-10T05:18:35;14.20;98.30
48998;DHT22;34807;51.456;7.244;2023-05-10T05:21:00;14.20;98.30
48998;DHT22;34807;51.456;7.244;2023-05-10T05:23:26;14.20;98.30
48998;DHT22;34807;51.456;7.244;2023-05-10T05:25:53;14.20;98.20
48998;DHT22;34807;51.456;7.244;2023-05-10T05:28:19;14.20;98.30
48998;DHT22;34807;51.456;7.244;2023-05-10T05:30:45;14.20;98.20
48998;DHT22;34807;51.456;7.244;2023-05-10T05:33:11;14.20;98.30
48998;DHT22;34807;51.456;7.244;2023-05-10T05:35:38;14.20;98.20
48998;DHT22;34807;51.456;7.244;2023-05-10T05:38:03;14.20;98.20
48998;DHT22;34807;51.456;7.244;2023-05-10T05:40:29;14.20;98.20
48998;DHT22;34807;51.456;7.244;2023-05-10T05:42:54;14.20;98.20
48998;DHT22;34807;51.456;7.244;2023-05-10T05:45:20;14.20;98.30
48998;DHT22;34807;51.456;7.244;2023-05-10T05:47:46;14.20;98.10
48998;DHT22;34807;51.456;7.244;2023-05-10T05:50:12;14.20;98.10
48998;DHT22;34807;51.456;7.244;2023-05-10T05:52:37;14.20;98.20
48998;DHT22;34807;51.456;7.244;2023-05-10T05:55:03;14.20;98.20
48998;DHT22;34807;51.456;7.244;2023-05-10T05:57:29;14.20;98.30
48998;DHT22;34807;51.456;7.244;2023-05-10T05:59:55;14.20;98.20
48998;DHT22;34807;51.456;7.244;2023-05-10T06:02:21;14.30;98.20
48998;DHT22;34807;51.456;7.244;2023-05-10T06:04:46;14.20;98.20
48998;DHT22;34807;51.456;7.244;2023-05-10T06:07:12;14.30;98.30
48998;DHT22;34807;51.456;7.244;2023-05-10T06:09:37;14.30;98.20
48998;DHT22;34807;51.456;7.244;2023-05-10T06:12:03;14.30;98.10
48998;DHT22;34807;51.456;7.244;2023-05-10T06:14:28;14.30;98.20
48998;DHT22;34807;51.456;7.244;2023-05-10T06:16:54;14.30;98.20
48998;DHT22;34807;51.456;7.244;2023-05-10T06:19:19;14.30;98.40
48998;DHT22;34807;51.456;7.244;2023-05-10T06:21:45;14.30;98.40
48998;DHT22;34807;51.456;7.244;2023-05-10T06:24:10;14.30;98.40
48998;DHT22;34807;51.456;7.244;2023-05-10T06:26:36;14.30;98.30
48998;DHT22;34807;51.456;7.244;2023-05-10T06:29:01;14.40;98.40
48998;DHT22;34807;51.456;7.244;2023-05-10T06:31:27;14.40;98.30
48998;DHT22;34807;51.456;7.244;2023-05-10T06:33:53;14.40;98.40
48998;DHT22;34807;51.456;7.244;2023-05-10T06:36:18;14.40;98.20
48998;DHT22;34807;51.456;7.244;2023-05-10T06:38:44;14.40;98.40
48998;DHT22;34807;51.456;7.244;2023-05-10T06:41:09;14.50;98.40
48998;DHT22;34807;51.456;7.244;2023-05-10T06:43:35;14.50;98.40
48998;DHT22;34807;51.456;7.244;2023-05-10T06:46:00;14.50;98.20
48998;DHT22;34807;51.456;7.244;2023-05-10T06:48:26;14.50;98.20
48998;DHT22;34807;51.456;7.244;2023-05-10T06:50:51;14.60;98.10
48998;DHT22;34807;51.456;7.244;2023-05-10T06:53:17;14.60;98.10
48998;DHT22;34807;51.456;7.244;2023-05-10T06:55:42;14.60;98.10
48998;DHT22;34807;51.456;7.244;2023-05-10T06:58:08;14.60;98.00
48998;DHT22;34807;51.456;7.244;2023-05-10T07:00:34;14.60;98.00
48998;DHT22;34807;51.456;7.244;2023-05-10T07:02:59;14.70;98.00
48998;DHT22;34807;51.456;7.244;2023-05-10T07:05:25;14.70;97.90
48998;DHT22;34807;51.456;7.244;2023-05-10T07:07:53;14.70;97.90
48998;DHT22;34807;51.456;7.244;2023-05-10T07:10:18;14.70;97.80
48998;DHT22;34807;51.456;7.244;2023-05-10T07:12:44;14.80;97.80
48998;DHT22;34807;51.456;7.244;2023-05-10T07:15:10;14.90;97.70
48998;DHT22;34807;51.456;7.244;2023-05-10T07:17:35;14.90;97.70
48998;DHT22;34807;51.456;7.244;2023-05-10T07:20:01;14.90;97.70
48998;DHT22;34807;51.456;7.244;2023-05-10T07:22:26;14.90;97.70
48998;DHT22;34807;51.456;7.244;2023-05-10T07:24:52;14.90;97.80
48998;DHT22;34807;51.456;7.244;2023-05-10T07:27:17;15.00;98.00
48998;DHT22;34807;51.456;7.244;2023-05-10T07:29:43;15.00;97.80
48998;DHT22;34807;51.456;7.244;2023-05-10T07:32:08;15.00;97.70
48998;DHT22;34807;51.456;7.244;2023-05-10T07:34:34;15.00;97.80
48998;DHT22;34807;51.456;7.244;2023-05-10T07:36:59;15.10;97.70
48998;DHT22;34807;51.456;7.244;2023-05-10T07:39:25;15.10;97.60
48998;DHT22;34807;51.456;7.244;2023-05-10T07:41:51;15.10;97.70
48998;DHT22;34807;51.456;7.244;2023-05-10T07:44:16;15.10;97.70
48998;DHT22;34807;51.456;7.244;2023-05-10T07:46:44;15.20;97.70
48998;DHT22;34807;51.456;7.244;2023-05-10T07:49:09;15.20;97.80
48998;DHT22;34807;51.456;7.244;2023-05-10T07:51:35;15.20;97.50
48998;DHT22;34807;51.456;7.244;2023-05-10T07:54:00;15.30;97.40
48998;DHT22;34807;51.456;7.244;2023-05-10T07:56:28;15.30;97.40
48998;DHT22;34807;51.456;7.244;2023-05-10T07:59:00;15.40;97.50
48998;DHT22;34807;51.456;7.244;2023-05-10T08:01:29;15.40;97.50
48998;DHT22;34807;51.456;7.244;2023-05-10T08:03:55;15.40;97.50
48998;DHT22;34807;51.456;7.244;2023-05-10T08:06:20;15.40;97.70
48998;DHT22;34807;51.456;7.244;2023-05-10T08:08:47;15.40;97.30
48998;DHT22;34807;51.456;7.244;2023-05-10T08:11:15;15.50;97.30
48998;DHT22;34807;51.456;7.244;2023-05-10T08:13:40;15.50;97.30
48998;DHT22;34807;51.456;7.244;2023-05-10T08:16:06;15.50;97.20
48998;DHT22;34807;51.456;7.244;2023-05-10T08:18:32;15.60;97.30
48998;DHT22;34807;51.456;7.244;2023-05-10T08:20:57;15.60;97.30
48998;DHT22;34807;51.456;7.244;2023-05-10T08:23:23;15.70;97.20
48998;DHT22;34807;51.456;7.244;2023-05-10T08:25:48;15.70;97.20
48998;DHT22;34807;51.456;7.244;2023-05-10T08:28:14;15.70;97.20
48998;DHT22;34807;51.456;7.244;2023-05-10T08:30:40;15.70;97.20
48998;DHT22;34807;51.456;7.244;2023-05-10T08:33:05;15.70;97.20
48998;DHT22;34807;51.456;7.244;2023-05-10T08:35:31;15.70;97.20
48998;DHT22;34807;51.456;7.244;2023-05-10T08:37:58;15.70;97.30
48998;DHT22;34807;51.456;7.244;2023-05-10T08:40:23;15.70;97.30
48998;DHT22;34807;51.456;7.244;2023-05-10T08:42:58;15.70;97.30
48998;DHT22;34807;51.456;7.244;2023-05-10T08:45:24;15.80;97.30
48998;DHT22;34807;51.456;7.244;2023-05-10T08:47:49;15.80;97.20
48998;DHT22;34807;51.456;7.244;2023-05-10T08:50:17;15.90;97.40
48998;DHT22;34807;51.456;7.244;2023-05-10T08:52:45;15.90;97.00
48998;DHT22;34807;51.456;7.244;2023-05-10T08:55:10;16.00;97.10
48998;DHT22;34807;51.456;7.244;2023-05-10T08:57:36;16.00;97.20
48998;DHT22;34807;51.456;7.244;2023-05-10T09:00:02;16.00;97.00
48998;DHT22;34807;51.456;7.244;2023-05-10T09:02:27;16.10;96.80
48998;DHT22;34807;51.456;7.244;2023-05-10T09:04:53;16.10;96.90
48998;DHT22;34807;51.456;7.244;2023-05-10T09:07:19;16.20;96.70
48998;DHT22;34807;51.456;7.244;2023-05-10T09:09:45;16.20;96.60
48998;DHT22;34807;51.456;7.244;2023-05-10T09:12:11;16.30;96.60
48998;DHT22;34807;51.456;7.244;2023-05-10T09:14:37;16.30;97.00
48998;DHT22;34807;51.456;7.244;2023-05-10T09:17:03;16.30;96.70
48998;DHT22;34807;51.456;7.244;2023-05-10T09:19:29;16.30;96.60
48998;DHT22;34807;51.456;7.244;2023-05-10T09:21:54;16.30;96.60
48998;DHT22;34807;51.456;7.244;2023-05-10T09:24:21;16.30;96.80
48998;DHT22;34807;51.456;7.244;2023-05-10T09:26:50;16.30;96.90
48998;DHT22;34807;51.456;7.244;2023-05-10T09:29:15;16.30;96.70
48998;DHT22;34807;51.456;7.244;2023-05-10T09:31:48;16.40;96.70
48998;DHT22;34807;51.456;7.244;2023-05-10T09:34:19;16.40;96.60
48998;DHT22;34807;51.456;7.244;2023-05-10T09:36:52;16.40;96.60
48998;DHT22;34807;51.456;7.244;2023-05-10T09:39:18;16.50;96.50
48998;DHT22;34807;51.456;7.244;2023-05-10T09:41:43;16.50;96.50
48998;DHT22;34807;51.456;7.244;2023-05-10T09:44:09;16.50;96.40
48998;DHT22;34807;51.456;7.244;2023-05-10T09:46:35;16.60;96.40
48998;DHT22;34807;51.456;7.244;2023-05-10T09:49:01;16.60;96.40
48998;DHT22;34807;51.456;7.244;2023-05-10T09:51:26;16.60;96.30
48998;DHT22;34807;51.456;7.244;2023-05-10T09:54:11;16.60;96.60
48998;DHT22;34807;51.456;7.244;2023-05-10T09:56:36;16.60;96.50
48998;DHT22;34807;51.456;7.244;2023-05-10T09:59:04;16.60;96.40
48998;DHT22;34807;51.456;7.244;2023-05-10T10:01:30;16.60;96.40
48998;DHT22;34807;51.456;7.244;2023-05-10T10:03:56;16.70;96.40
48998;DHT22;34807;51.456;7.244;2023-05-10T10:06:23;16.70;96.60
48998;DHT22;34807;51.456;7.244;2023-05-10T10:08:48;16.70;96.40
48998;DHT22;34807;51.456;7.244;2023-05-10T10:11:14;16.70;96.30
48998;DHT22;34807;51.456;7.244;2023-05-10T10:13:40;16.70;96.40
48998;DHT22;34807;51.456;7.244;2023-05-10T10:16:06;16.80;96.30
48998;DHT22;34807;51.456;7.244;2023-05-10T10:18:32;16.80;96.30
48998;DHT22;34807;51.456;7.244;2023-05-10T10:20:58;16.80;96.30
48998;DHT22;34807;51.456;7.244;2023-05-10T10:23:24;16.90;96.40
48998;DHT22;34807;51.456;7.244;2023-05-10T10:25:49;16.90;96.10
48998;DHT22;34807;51.456;7.244;2023-05-10T10:30:49;17.10;95.90
48998;DHT22;34807;51.456;7.244;2023-05-10T10:36:00;17.10;95.80
48998;DHT22;34807;51.456;7.244;2023-05-10T10:38:25;17.20;95.70
48998;DHT22;34807;51.456;7.244;2023-05-10T10:41:10;17.30;95.60
48998;DHT22;34807;51.456;7.244;2023-05-10T10:43:37;17.30;95.50
48998;DHT22;34807;51.456;7.244;2023-05-10T10:46:15;17.40;95.40
48998;DHT22;34807;51.456;7.244;2023-05-10T10:48:49;17.40;95.40
48998;DHT22;34807;51.456;7.244;2023-05-10T10:51:14;17.50;95.30
48998;DHT22;34807;51.456;7.244;2023-05-10T10:53:40;17.50;95.20
48998;DHT22;34807;51.456;7.244;2023-05-10T10:56:07;17.50;95.20
48998;DHT22;34807;51.456;7.244;2023-05-10T10:58:33;17.60;95.20
48998;DHT22;34807;51.456;7.244;2023-05-10T11:03:37;17.70;95.00
48998;DHT22;34807;51.456;7.244;2023-05-10T11:06:02;17.70;95.00
48998;DHT22;34807;51.456;7.244;2023-05-10T11:08:29;17.70;95.10
48998;DHT22;34807;51.456;7.244;2023-05-10T11:13:30;17.70;95.20
48998;DHT22;34807;51.456;7.244;2023-05-10T11:15:56;17.60;95.00
48998;DHT22;34807;51.456;7.244;2023-05-10T11:18:25;17.60;95.40
48998;DHT22;34807;51.456;7.244;2023-05-10T11:20:51;17.50;95.20
48998;DHT22;34807;51.456;7.244;2023-05-10T11:23:17;17.50;95.40
48998;DHT22;34807;51.456;7.244;2023-05-10T11:25:44;17.50;95.40
48998;DHT22;34807;51.456;7.244;2023-05-10T11:28:10;17.50;95.40
48998;DHT22;34807;51.456;7.244;2023-05-10T11:30:36;17.50;95.50
48998;DHT22;34807;51.456;7.244;2023-05-10T11:33:02;17.50;95.50
48998;DHT22;34807;51.456;7.244;2023-05-10T11:35:27;17.50;95.50
48998;DHT22;34807;51.456;7.244;2023-05-10T11:37:53;17.50;95.50
48998;DHT22;34807;51.456;7.244;2023-05-10T11:40:18;17.50;95.40
48998;DHT22;34807;51.456;7.244;2023-05-10T11:42:46;17.50;95.50
48998;DHT22;34807;51.456;7.244;2023-05-10T11:45:11;17.50;95.40
48998;DHT22;34807;51.456;7.244;2023-05-10T11:47:37;17.60;95.40
48998;DHT22;34807;51.456;7.244;2023-05-10T11:50:04;17.60;95.30
48998;DHT22;34807;51.456;7.244;2023-05-10T11:52:35;17.60;95.30
48998;DHT22;34807;51.456;7.244;2023-05-10T11:55:00;17.70;95.30
48998;DHT22;34807;51.456;7.244;2023-05-10T11:57:26;17.70;95.20
48998;DHT22;34807;51.456;7.244;2023-05-10T11:59:58;17.70;95.20
48998;DHT22;34807;51.456;7.244;2023-05-10T12:02:23;17.70;95.00
48998;DHT22;34807;51.456;7.244;2023-05-10T12:04:49;17.70;95.10
48998;DHT22;34807;51.456;7.244;2023-05-10T12:07:15;17.70;95.20
48998;DHT22;34807;51.456;7.244;2023-05-10T12:09:44;17.60;95.10
48998;DHT22;34807;51.456;7.244;2023-05-10T12:12:16;17.70;95.10
48998;DHT22;34807;51.456;7.244;2023-05-10T12:14:42;17.60;95.20
48998;DHT22;34807;51.456;7.244;2023-05-10T12:17:11;17.60;95.20
48998;DHT22;34807;51.456;7.244;2023-05-10T12:19:37;17.60;95.20
48998;DHT22;34807;51.456;7.244;2023-05-10T12:22:04;17.60;95.30
48998;DHT22;34807;51.456;7.244;2023-05-10T12:24:29;17.60;95.30
48998;DHT22;34807;51.456;7.244;2023-05-10T12:26:55;17.60;95.20
48998;DHT22;34807;51.456;7.244;2023-05-10T12:29:20;17.70;95.10
48998;DHT22;34807;51.456;7.244;2023-05-10T12:31:50;17.80;95.00
48998;DHT22;34807;51.456;7.244;2023-05-10T12:36:54;18.00;94.70
48998;DHT22;34807;51.456;7.244;2023-05-10T12:39:19;18.00;94.60
48998;DHT22;34807;51.456;7.244;2023-05-10T12:41:45;18.10;94.40
48998;DHT22;34807;51.456;7.244;2023-05-10T12:44:10;18.20;94.30
48998;DHT22;34807;51.456;7.244;2023-05-10T12:46:36;18.30;94.20
48998;DHT22;34807;51.456;7.244;2023-05-10T12:49:01;18.30;94.10
48998;DHT22;34807;51.456;7.244;2023-05-10T12:51:27;18.40;94.00
48998;DHT22;34807;51.456;7.244;2023-05-10T12:53:52;18.50;94.00
48998;DHT22;34807;51.456;7.244;2023-05-10T12:56:18;18.50;93.90
48998;DHT22;34807;51.456;7.244;2023-05-10T12:58:43;18.60;93.90
48998;DHT22;34807;51.456;7.244;2023-05-10T13:01:13;18.60;93.70
48998;DHT22;34807;51.456;7.244;2023-05-10T13:03:39;18.70;93.60
48998;DHT22;34807;51.456;7.244;2023-05-10T13:06:04;18.70;93.70
48998;DHT22;34807;51.456;7.244;2023-05-10T13:08:30;18.80;93.50
48998;DHT22;34807;51.456;7.244;2023-05-10T13:11:01;18.90;93.50
48998;DHT22;34807;51.456;7.244;2023-05-10T13:13:27;18.90;93.30
48998;DHT22;34807;51.456;7.244;2023-05-10T13:15:53;19.10;93.40
48998;DHT22;34807;51.456;7.244;2023-05-10T13:18:18;19.10;93.40
48998;DHT22;34807;51.456;7.244;2023-05-10T13:20:44;19.10;93.40
48998;DHT22;34807;51.456;7.244;2023-05-10T13:23:10;19.10;93.30
48998;DHT22;34807;51.456;7.244;2023-05-10T13:25:35;19.20;93.30
48998;DHT22;34807;51.456;7.244;2023-05-10T13:28:01;19.20;93.30
48998;DHT22;34807;51.456;7.244;2023-05-10T13:30:27;19.20;93.20
48998;DHT22;34807;51.456;7.244;2023-05-10T13:32:54;19.20;93.10
48998;DHT22;34807;51.456;7.244;2023-05-10T13:35:19;19.30;93.10
48998;DHT22;34807;51.456;7.244;2023-05-10T13:37:45;19.30;93.10
48998;DHT22;34807;51.456;7.244;2023-05-10T13:40:10;19.40;92.90
48998;DHT22;34807;51.456;7.244;2023-05-10T13:42:36;19.40;92.90
48998;DHT22;34807;51.456;7.244;2023-05-10T13:45:02;19.50;92.80
48998;DHT22;34807;51.456;7.244;2023-05-10T13:47:28;19.50;92.80
48998;DHT22;34807;51.456;7.244;2023-05-10T13:49:54;19.50;92.80
48998;DHT22;34807;51.456;7.244;2023-05-10T13:52:19;19.60;92.70
48998;DHT22;34807;51.456;7.244;2023-05-10T13:54:44;19.60;92.60
48998;DHT22;34807;51.456;7.244;2023-05-10T13:57:11;19.60;92.90
48998;DHT22;34807;51.456;7.244;2023-05-10T13:59:39;19.70;92.50
48998;DHT22;34807;51.456;7.244;2023-05-10T14:02:04;19.80;92.40
48998;DHT22;34807;51.456;7.244;2023-05-10T14:04:30;19.80;92.30
48998;DHT22;34807;51.456;7.244;2023-05-10T14:06:55;19.80;92.40
48998;DHT22;34807;51.456;7.244;2023-05-10T14:09:21;19.90;92.00
48998;DHT22;34807;51.456;7.244;2023-05-10T14:11:46;19.90;92.10
48998;DHT22;34807;51.456;7.244;2023-05-10T14:14:12;20.00;92.20
48998;DHT22;34807;51.456;7.244;2023-05-10T14:16:41;20.00;91.70
48998;DHT22;34807;51.456;7.244;2023-05-10T14:19:06;20.10;91.90
48998;DHT22;34807;51.456;7.244;2023-05-10T14:21:32;20.20;91.80
48998;DHT22;34807;51.456;7.244;2023-05-10T14:23:58;20.20;91.70
48998;DHT22;34807;51.456;7.244;2023-05-10T14:26:23;20.30;91.50
48998;DHT22;34807;51.456;7.244;2023-05-10T14:28:49;20.40;91.60
48998;DHT22;34807;51.456;7.244;2023-05-10T14:31:14;20.50;91.40
48998;DHT22;34807;51.456;7.244;2023-05-10T14:33:42;20.70;91.20
48998;DHT22;34807;51.456;7.244;2023-05-10T14:36:08;20.80;91.10
48998;DHT22;34807;51.456;7.244;2023-05-10T14:38:34;20.80;90.80
48998;DHT22;34807;51.456;7.244;2023-05-10T14:40:59;20.80;90.90
48998;DHT22;34807;51.456;7.244;2023-05-10T14:43:25;20.70;91.20
48998;DHT22;34807;51.456;7.244;2023-05-10T14:45:50;20.70;90.90
48998;DHT22;34807;51.456;7.244;2023-05-10T14:48:16;20.80;91.30
48998;DHT22;34807;51.456;7.244;2023-05-10T14:50:43;21.10;90.60
48998;DHT22;34807;51.456;7.244;2023-05-10T14:53:08;21.30;90.30
48998;DHT22;34807;51.456;7.244;2023-05-10T14:55:34;21.30;90.10
48998;DHT22;34807;51.456;7.244;2023-05-10T14:58:01;21.40;90.20
48998;DHT22;34807;51.456;7.244;2023-05-10T15:00:27;21.50;90.00
48998;DHT22;34807;51.456;7.244;2023-05-10T15:02:53;21.70;89.30
48998;DHT22;34807;51.456;7.244;2023-05-10T15:05:18;21.50;89.70
48998;DHT22;34807;51.456;7.244;2023-05-10T15:07:44;21.40;90.10
48998;DHT22;34807;51.456;7.244;2023-05-10T15:10:09;21.30;90.10
48998;DHT22;34807;51.456;7.244;2023-05-10T15:12:36;21.30;90.10
48998;DHT22;34807;51.456;7.244;2023-05-10T15:15:02;21.20;90.20
48998;DHT22;34807;51.456;7.244;2023-05-10T15:17:27;21.20;90.20
48998;DHT22;34807;51.456;7.244;2023-05-10T15:19:53;21.50;89.70
48998;DHT22;34807;51.456;7.244;2023-05-10T15:22:18;21.80;89.00
48998;DHT22;34807;51.456;7.244;2023-05-10T15:24:44;22.20;87.90
48998;DHT22;34807;51.456;7.244;2023-05-10T15:27:09;22.60;86.40
48998;DHT22;34807;51.456;7.244;2023-05-10T15:29:35;22.90;85.20
48998;DHT22;34807;51.456;7.244;2023-05-10T15:32:01;22.80;84.90
48998;DHT22;34807;51.456;7.244;2023-05-10T15:34:26;22.60;85.60
48998;DHT22;34807;51.456;7.244;2023-05-10T15:36:52;22.30;86.30
48998;DHT22;34807;51.456;7.244;2023-05-10T15:39:18;22.00;87.50
48998;DHT22;34807;51.456;7.244;2023-05-10T15:41:43;21.90;88.50
48998;DHT22;34807;51.456;7.244;2023-05-10T15:44:09;21.70;89.10
48998;DHT22;34807;51.456;7.244;2023-05-10T15:46:34;21.50;89.70
48998;DHT22;34807;51.456;7.244;2023-05-10T15:49:00;21.30;90.10
48998;DHT22;34807;51.456;7.244;2023-05-10T15:51:25;21.20;90.50
48998;DHT22;34807;51.456;7.244;2023-05-10T15:53:51;21.10;90.80
48998;DHT22;34807;51.456;7.244;2023-05-10T15:56:17;21.00;91.20
48998;DHT22;34807;51.456;7.244;2023-05-10T15:58:42;20.90;91.40